Impacts METAR Board INFO
IDs:

KPHL - Philadelphia Intl, PA, US

Updated at: 0456 UTC 18 Dec 2017
Potential Impact None Slight Moderate High
Time17/16Z 17/17Z 17/18Z 17/19Z 17/20Z 17/21Z 17/22Z 17/23Z 18/00Z 18/01Z 18/02Z 18/03Z 18/04Z
VIS10 10 10 10 10 10 10 10 10 10 10 10 10
CIG260 260 260 160 180 180 180 180 180 110 120 100 85
CoverBKNBKNOVCOVCOVCOVCOVCOVCOVCOVCOVCOVCOVC
FltCatVFRVFRVFRVFRVFRVFRVFRVFRVFRVFRVFRVFRVFR
WX--------------------------
WDir60100000040608060805050
WSpd5 4 0 0 0 0 4 4 5 5 6 7 4
WGst-- -- -- -- -- -- -- -- -- -- -- -- --
Raw hourly METARs
KPHL 171554Z 06005KT 10SM FEW230 BKN260 04/M03 A3029 RMK AO2 SLP257 T00441028 $
KPHL 171654Z 10004KT 10SM FEW220 BKN260 05/M03 A3027 RMK AO2 SLP249 T00501028 $
KPHL 171754Z 00000KT 10SM FEW210 OVC260 06/M02 A3024 RMK AO2 SLP240 T00561022 10061 20000 58017 $
KPHL 171854Z 00000KT 10SM BKN160 BKN210 OVC260 06/M03 A3022 RMK AO2 SLP233 T00611028 $
KPHL 171954Z 00000KT 10SM BKN180 OVC260 07/M02 A3022 RMK AO2 SLP231 T00671022 $
KPHL 172054Z 00000KT 10SM BKN180 OVC260 06/M02 A3022 RMK AO2 SLP232 T00611022 55008 $
KPHL 172154Z 04004KT 10SM BKN180 OVC250 06/M02 A3022 RMK AO2 SLP233 T00561017 $
KPHL 172254Z 06004KT 10SM BKN180 OVC250 05/M02 A3024 RMK AO2 SLP239 T00501017 $
KPHL 172354Z 08005KT 10SM BKN180 OVC250 04/M01 A3025 RMK AO2 SLP242 T00441011 10067 20044 53009 $
KPHL 180054Z 06005KT 10SM BKN110 OVC250 04/M02 A3023 RMK AO2 SLP235 T00391017 $
KPHL 180154Z 08006KT 10SM BKN120 OVC250 04/M01 A3022 RMK AO2 SLP233 T00391011 $
KPHL 180254Z 05007KT 10SM BKN100 OVC160 04/M01 A3021 RMK AO2 SLP229 T00391006 56012 $
KPHL 180354Z 05004KT 10SM BKN085 OVC100 03/M01 A3020 RMK AO2 SLP225 T00331006 $